createdAt,value
2018-04-08T07:15:54.610Z,43.77
2018-04-08T07:18:23.485Z,44.40
2018-04-08T07:24:11.983Z,46.53
2018-04-08T07:26:40.619Z,49.33
2018-04-08T07:29:08.487Z,47.47
2018-04-08T07:31:36.417Z,48.13
2018-04-08T07:34:04.372Z,46.53
2018-04-08T07:36:33.023Z,46.33
2018-04-08T07:39:01.004Z,46.27
2018-04-08T07:41:29.675Z,48.33
2018-04-08T07:43:57.580Z,46.83
2018-04-08T07:46:25.592Z,44.23
2018-04-08T07:48:53.546Z,43.73
2018-04-08T07:51:21.497Z,43.30
2018-04-08T07:53:49.458Z,43.13
2018-04-08T07:56:17.413Z,44.10
2018-04-08T07:58:46.147Z,39.90
2018-04-08T08:01:14.141Z,41.67
2018-04-08T08:03:42.039Z,41.83
2018-04-08T08:06:10.017Z,42.60
2018-04-08T08:08:37.931Z,41.80
2018-04-08T08:11:05.975Z,43.30
2018-04-08T08:13:33.928Z,39.20
2018-04-08T08:16:01.879Z,41.47
2018-04-08T08:18:30.546Z,42.37
2018-04-08T08:20:59.216Z,41.73
2018-04-08T08:23:27.184Z,42.10
2018-04-08T08:25:55.149Z,42.87
2018-04-08T08:28:23.222Z,41.47
2018-04-08T08:30:51.292Z,41.67
2018-04-08T08:33:19.158Z,42.63
2018-04-08T08:35:47.098Z,42.13
2018-04-08T08:38:15.238Z,43.90
2018-04-08T08:40:43.117Z,41.83
2018-04-08T08:43:11.084Z,42.40
2018-04-08T08:45:38.994Z,40.90
2018-04-08T08:48:06.864Z,41.07
2018-04-08T08:50:34.746Z,40.80
2018-04-08T08:53:02.628Z,40.37
2018-04-08T08:55:31.254Z,40.63
2018-04-08T08:57:59.125Z,40.33
2018-04-08T09:00:27.006Z,42.33
2018-04-08T09:02:54.895Z,41.03
2018-04-08T09:05:22.834Z,43.40
2018-04-08T09:07:50.727Z,42.40
2018-04-08T09:10:18.681Z,43.27
2018-04-08T09:15:22.764Z,41.83
2018-04-08T09:17:50.678Z,43.07
2018-04-08T09:20:38.306Z,44.07
2018-04-08T09:23:12.752Z,44.07
2018-04-08T09:25:47.192Z,41.57
2018-04-08T09:28:15.048Z,42.03
2018-04-08T09:30:43.639Z,41.27
2018-04-08T09:33:11.508Z,39.37
2018-04-08T09:35:39.325Z,39.33
2018-04-08T09:38:07.327Z,39.87
2018-04-08T09:40:35.874Z,38.38
2018-04-08T09:43:04.529Z,38.63
2018-04-08T09:45:32.352Z,40.13
2018-04-08T09:48:00.951Z,39.03
2018-04-08T09:50:29.509Z,39.43
2018-04-08T09:52:58.044Z,38.30
2018-04-08T09:55:25.957Z,38.67
2018-04-08T09:57:53.832Z,37.73
2018-04-08T10:00:41.145Z,36.35
2018-04-08T10:03:14.749Z,39.13
2018-04-08T10:05:52.322Z,38.73
2018-04-08T10:08:20.208Z,40.30
2018-04-08T10:10:48.009Z,38.97
2018-04-08T10:13:15.795Z,40.80
2018-04-08T10:15:43.811Z,39.67
2018-04-08T10:18:12.430Z,39.50
2018-04-08T10:20:40.488Z,39.40
2018-04-08T10:23:08.409Z,39.33
2018-04-08T10:25:36.357Z,33.80
2018-04-08T10:28:04.349Z,38.83
2018-04-08T10:30:32.334Z,39.00
2018-04-08T10:33:00.160Z,38.87
2018-04-08T10:35:28.054Z,38.23
2018-04-08T10:37:56.123Z,36.53
2018-04-08T10:40:24.503Z,38.03
2018-04-08T10:42:52.372Z,37.60
2018-04-08T10:45:20.160Z,38.63
2018-04-08T10:47:48.779Z,38.40
2018-04-08T10:50:16.563Z,39.67
2018-04-08T10:52:44.334Z,37.40
2018-04-08T10:55:12.133Z,38.23
2018-04-08T10:57:40.696Z,37.53
2018-04-08T11:00:08.490Z,38.73
2018-04-08T11:02:37.450Z,38.53
2018-04-08T11:05:06.150Z,38.23
2018-04-08T11:07:34.704Z,37.03
2018-04-08T11:10:02.506Z,36.50
2018-04-08T11:12:31.107Z,35.20
2018-04-08T11:14:58.921Z,35.90
2018-04-08T11:17:26.723Z,36.23
2018-04-08T11:19:54.655Z,29.05
2018-04-08T11:22:22.464Z,33.70
2018-04-08T11:24:50.332Z,33.67
2018-04-08T11:27:18.119Z,33.40
2018-04-08T11:29:45.994Z,33.20
2018-04-08T11:32:13.773Z,33.33
2018-04-08T11:34:41.579Z,32.73
2018-04-08T11:37:10.140Z,33.70
2018-04-08T11:39:38.047Z,33.50
2018-04-08T11:42:05.826Z,33.23
2018-04-08T11:44:33.711Z,33.50
2018-04-08T11:47:01.604Z,33.30
2018-04-08T11:49:29.468Z,33.97
2018-04-08T11:51:57.343Z,34.43
2018-04-08T11:54:26.010Z,33.90
2018-04-08T11:56:53.801Z,34.23
2018-04-08T11:59:22.407Z,33.63
2018-04-08T12:01:50.276Z,34.20
2018-04-08T12:04:18.215Z,28.52
2018-04-08T12:06:46.904Z,32.20
2018-04-08T12:09:15.558Z,34.50
2018-04-08T12:11:43.450Z,32.33
2018-04-08T12:14:12.220Z,33.67
2018-04-08T12:16:40.056Z,32.73
2018-04-08T12:19:07.966Z,32.87
2018-04-08T12:21:36.627Z,32.90
2018-04-08T12:24:04.435Z,32.40
2018-04-08T12:26:32.357Z,33.43
2018-04-08T12:29:00.291Z,32.07
2018-04-08T12:31:28.260Z,32.63
2018-04-08T12:33:56.147Z,32.63
2018-04-08T12:36:24.030Z,32.63
2018-04-08T12:38:51.891Z,27.02
2018-04-08T12:41:19.706Z,30.62
2018-04-08T12:43:47.520Z,32.37
2018-04-08T12:46:15.322Z,32.67
2018-04-08T12:48:43.968Z,33.03
2018-04-08T12:51:11.765Z,33.10
2018-04-08T12:53:40.726Z,28.42
2018-04-08T12:56:08.604Z,32.07
2018-04-08T12:58:36.441Z,32.90
2018-04-08T13:01:04.278Z,35.30
2018-04-08T13:03:32.245Z,36.33
2018-04-08T13:06:00.056Z,36.43
2018-04-08T13:08:28.148Z,36.83
2018-04-08T13:10:56.711Z,33.20
2018-04-08T13:13:24.534Z,36.53
2018-04-08T13:15:52.694Z,37.23
2018-04-08T13:18:20.545Z,38.57
2018-04-08T13:20:49.159Z,37.23
2018-04-08T13:23:16.928Z,36.73
2018-04-08T13:25:44.776Z,36.97
2018-04-08T13:28:12.619Z,37.47
2018-04-08T13:30:41.275Z,37.50
2018-04-08T13:33:09.091Z,38.43
2018-04-08T13:35:36.904Z,36.97
2018-04-08T13:38:04.752Z,36.90
2018-04-08T13:40:32.614Z,37.40
2018-04-08T13:43:00.453Z,37.27
2018-04-08T13:45:28.236Z,37.30
2018-04-08T13:47:56.074Z,37.07
2018-04-08T13:50:24.613Z,37.70
2018-04-08T13:52:52.422Z,39.07
2018-04-08T13:55:20.988Z,38.03
2018-04-08T13:57:49.551Z,36.77
2018-04-08T14:00:17.363Z,37.53
2018-04-08T14:02:45.236Z,37.90
2018-04-08T14:05:13.008Z,37.47
2018-04-08T14:07:40.963Z,36.73
2018-04-08T14:10:08.724Z,37.43
2018-04-08T14:12:36.512Z,35.93
2018-04-08T14:15:04.340Z,37.33
2018-04-08T14:17:32.879Z,37.60
2018-04-08T14:20:00.676Z,37.67
2018-04-08T14:22:29.227Z,37.87
2018-04-08T14:24:57.030Z,37.90
2018-04-08T14:27:24.784Z,37.37
2018-04-08T14:29:53.403Z,38.27
2018-04-08T14:32:21.243Z,38.50
2018-04-08T14:34:49.762Z,36.67
2018-04-08T14:37:17.607Z,38.67
2018-04-08T14:39:45.451Z,36.97
2018-04-08T14:42:14.014Z,39.30
2018-04-08T14:44:41.969Z,37.80
2018-04-08T14:47:09.918Z,38.17
2018-04-08T14:49:37.758Z,37.67
2018-04-08T14:52:05.529Z,38.50
2018-04-08T14:54:33.303Z,38.10
2018-04-08T14:57:01.851Z,38.23
2018-04-08T14:59:30.477Z,38.07
2018-04-08T15:01:58.363Z,37.33
2018-04-08T15:04:26.186Z,38.00
2018-04-08T15:06:54.057Z,37.57
2018-04-08T15:09:21.857Z,38.77
2018-04-08T15:11:49.619Z,39.03
2018-04-08T15:14:17.447Z,40.13
2018-04-08T15:16:45.291Z,38.17
2018-04-08T15:19:13.884Z,38.70
2018-04-08T15:21:41.741Z,38.23
2018-04-08T15:24:09.669Z,38.73
2018-04-08T15:26:37.443Z,38.57
2018-04-08T15:29:05.248Z,37.13
2018-04-08T15:31:33.038Z,37.57
2018-04-08T15:34:00.913Z,37.27
2018-04-08T15:36:29.540Z,39.20
2018-04-08T15:38:58.064Z,38.03
2018-04-08T15:41:25.911Z,38.40
2018-04-08T15:43:53.791Z,39.03
2018-04-08T15:46:21.724Z,38.50
2018-04-08T15:48:50.299Z,36.53
2018-04-08T15:51:18.966Z,37.27
2018-04-08T15:53:46.763Z,38.23
2018-04-08T15:56:15.302Z,37.90
2018-04-08T15:58:43.089Z,38.57
2018-04-08T16:01:10.877Z,38.93
2018-04-08T16:03:38.651Z,36.08
2018-04-08T16:06:06.555Z,32.92
2018-04-08T16:08:34.360Z,36.90
2018-04-08T16:11:02.911Z,37.87
2018-04-08T16:13:30.774Z,37.93
2018-04-08T16:15:58.581Z,38.10
2018-04-08T16:18:27.154Z,38.13
2018-04-08T16:20:55.766Z,37.13
2018-04-08T16:23:23.635Z,38.70
2018-04-08T16:25:51.506Z,33.28
2018-04-08T16:28:19.371Z,37.83
2018-04-08T16:30:47.223Z,38.37
2018-04-08T16:33:15.030Z,38.87
2018-04-08T16:35:42.900Z,35.17
2018-04-08T16:38:10.729Z,38.77
2018-04-08T16:40:38.535Z,38.17
2018-04-08T16:43:06.446Z,38.57
2018-04-08T16:45:34.313Z,38.17
2018-04-08T16:48:02.194Z,38.33
2018-04-08T16:50:30.045Z,35.25
2018-04-08T16:52:57.958Z,39.07
2018-04-08T16:55:25.806Z,37.90
2018-04-08T16:57:53.745Z,37.10
2018-04-08T17:00:21.639Z,37.90
2018-04-08T17:02:49.427Z,38.60
2018-04-08T17:05:17.244Z,38.53
2018-04-08T17:07:45.065Z,37.97
2018-04-08T17:10:12.856Z,38.73
2018-04-08T17:12:41.478Z,39.03
2018-04-08T17:15:09.475Z,40.57
2018-04-08T17:17:37.409Z,39.17
2018-04-08T17:20:05.312Z,38.50
2018-04-08T17:22:33.131Z,41.03
2018-04-08T17:25:00.978Z,37.60
2018-04-08T17:27:29.601Z,36.35
2018-04-08T17:29:57.490Z,38.43
2018-04-08T17:32:25.305Z,41.20
2018-04-08T17:34:53.137Z,39.43
2018-04-08T17:37:21.957Z,41.60
2018-04-08T17:39:49.773Z,40.10
2018-04-08T17:42:18.487Z,39.73
2018-04-08T17:44:47.230Z,40.93
2018-04-08T17:47:15.231Z,42.17
2018-04-08T17:49:43.079Z,41.40
2018-04-08T17:52:11.051Z,41.87
2018-04-08T17:54:38.914Z,41.83
2018-04-08T17:57:07.052Z,41.30
2018-04-08T17:59:35.265Z,40.77
2018-04-08T18:02:03.144Z,40.33
2018-04-08T18:04:31.052Z,38.20
2018-04-08T18:06:58.889Z,41.67
2018-04-08T18:09:27.575Z,40.77
2018-04-08T18:11:56.233Z,39.77
2018-04-08T18:14:24.201Z,43.53
2018-04-08T18:16:52.022Z,40.33
2018-04-08T18:19:19.952Z,42.50
2018-04-08T18:21:49.160Z,39.20
2018-04-08T18:24:17.778Z,43.63
2018-04-08T18:26:45.680Z,40.60
2018-04-08T18:29:13.498Z,41.07
2018-04-08T18:31:41.307Z,41.80
2018-04-08T18:34:09.160Z,41.03
2018-04-08T18:36:37.034Z,41.67
2018-04-08T18:39:05.010Z,42.10
2018-04-08T18:41:32.844Z,41.40
2018-04-08T18:44:00.755Z,41.00
2018-04-08T18:46:28.543Z,42.53
2018-04-08T18:48:57.161Z,40.47
2018-04-08T18:51:25.106Z,41.57
2018-04-08T18:53:52.954Z,42.23
2018-04-08T18:56:21.588Z,41.80
2018-04-08T18:58:49.446Z,42.10
2018-04-08T19:01:17.285Z,42.93
2018-04-08T19:03:45.895Z,39.95
2018-04-08T19:06:13.754Z,42.50
2018-04-08T19:08:41.567Z,42.73
2018-04-08T19:11:09.422Z,42.97
2018-04-08T19:13:37.308Z,42.47
2018-04-08T19:16:05.916Z,42.08
2018-04-08T19:18:33.704Z,40.90
2018-04-08T19:21:02.496Z,45.20
2018-04-08T19:23:30.344Z,46.60
2018-04-08T19:25:58.209Z,46.43
2018-04-08T19:28:26.082Z,46.53
2018-04-08T19:30:53.952Z,48.23
2018-04-08T19:33:21.845Z,48.13
2018-04-08T19:35:49.875Z,46.73
2018-04-08T19:38:17.677Z,47.80
2018-04-08T19:40:45.560Z,46.63
2018-04-08T19:43:13.475Z,47.57
2018-04-08T19:45:41.344Z,45.87
2018-04-08T19:48:09.309Z,46.30
2018-04-08T19:50:37.394Z,46.47
2018-04-08T19:53:05.490Z,40.10
2018-04-08T19:55:33.416Z,42.10
2018-04-08T19:58:01.534Z,43.13
2018-04-08T20:00:30.124Z,41.87
2018-04-08T20:02:58.435Z,42.60
2018-04-08T20:05:27.668Z,43.53
2018-04-08T20:07:56.210Z,42.40
2018-04-08T20:10:24.666Z,44.60
2018-04-08T20:12:53.066Z,43.63
2018-04-08T20:15:22.268Z,43.17
2018-04-08T20:17:51.406Z,42.73
2018-04-08T20:20:19.928Z,45.60
2018-04-08T20:22:49.031Z,44.63
2018-04-08T20:25:18.096Z,44.10
2018-04-08T20:27:46.211Z,44.93
2018-04-08T20:30:15.088Z,46.20
2018-04-08T20:32:43.977Z,46.10
2018-04-08T20:35:13.044Z,45.90
2018-04-08T20:37:41.054Z,43.42
2018-04-08T20:40:09.845Z,44.00
2018-04-08T20:42:37.733Z,45.20
2018-04-08T20:45:05.592Z,44.33
2018-04-08T20:47:33.397Z,43.60
2018-04-08T20:50:01.382Z,43.63
2018-04-08T20:52:29.308Z,45.27
2018-04-08T20:54:57.372Z,44.67
2018-04-08T20:57:25.236Z,44.27
2018-04-08T20:59:53.178Z,45.80
2018-04-08T21:02:21.960Z,46.77
2018-04-08T21:04:50.546Z,45.67
2018-04-08T21:07:23.296Z,45.67
2018-04-08T21:09:51.288Z,44.10
2018-04-08T21:12:19.933Z,44.73
2018-04-08T21:14:47.762Z,43.37
2018-04-08T21:17:15.610Z,45.03
2018-04-08T21:19:44.276Z,43.50
2018-04-08T21:22:12.076Z,44.13
2018-04-08T21:24:40.114Z,44.20
2018-04-08T21:27:08.810Z,43.67
2018-04-08T21:29:37.407Z,43.27
2018-04-08T21:32:06.065Z,43.07
2018-04-08T21:34:34.759Z,44.50
2018-04-08T21:37:03.317Z,43.67
2018-04-08T21:39:31.224Z,42.40
2018-04-08T21:41:59.142Z,44.27
2018-04-08T21:44:27.030Z,44.83
2018-04-08T21:46:54.976Z,42.67
2018-04-08T21:49:22.822Z,43.10
2018-04-08T21:51:50.746Z,43.50
2018-04-08T21:54:19.495Z,43.87
